sensor_id;sensor_type;location;lat;lon;timestamp;temperature;humidity
55369;DHT22;41247;49.736;8.752;2022-09-14T00:02:13;17.80;99.90
55369;DHT22;41247;49.736;8.752;2022-09-14T00:05:54;17.70;99.90
55369;DHT22;41247;49.736;8.752;2022-09-14T00:09:34;17.70;99.90
55369;DHT22;41247;49.736;8.752;2022-09-14T00:13:15;17.60;99.90
55369;DHT22;41247;49.736;8.752;2022-09-14T00:16:55;17.60;99.90
55369;DHT22;41247;49.736;8.752;2022-09-14T00:20:37;17.50;99.90
55369;DHT22;41247;49.736;8.752;2022-09-14T00:24:18;17.50;99.90
55369;DHT22;41247;49.736;8.752;2022-09-14T00:27:59;17.40;99.90
55369;DHT22;41247;49.736;8.752;2022-09-14T00:31:40;17.40;99.90
55369;DHT22;41247;49.736;8.752;2022-09-14T00:35:20;17.20;99.90
55369;DHT22;41247;49.736;8.752;2022-09-14T00:39:01;17.10;99.90
55369;DHT22;41247;49.736;8.752;2022-09-14T00:42:41;17.00;99.90
55369;DHT22;41247;49.736;8.752;2022-09-14T00:46:23;16.90;99.90
55369;DHT22;41247;49.736;8.752;2022-09-14T00:50:06;16.90;99.90
55369;DHT22;41247;49.736;8.752;2022-09-14T00:54:01;16.80;99.90
55369;DHT22;41247;49.736;8.752;2022-09-14T00:57:45;16.80;99.90
55369;DHT22;41247;49.736;8.752;2022-09-14T01:01:28;16.80;99.90
55369;DHT22;41247;49.736;8.752;2022-09-14T01:05:11;16.80;99.90
55369;DHT22;41247;49.736;8.752;2022-09-14T01:13:36;16.80;99.90
55369;DHT22;41247;49.736;8.752;2022-09-14T01:17:24;16.70;99.90
55369;DHT22;41247;49.736;8.752;2022-09-14T01:21:13;16.70;99.90
55369;DHT22;41247;49.736;8.752;2022-09-14T01:25:34;16.70;99.90
55369;DHT22;41247;49.736;8.752;2022-09-14T01:29:50;16.70;99.90
55369;DHT22;41247;49.736;8.752;2022-09-14T01:33:47;16.70;99.90
55369;DHT22;41247;49.736;8.752;2022-09-14T01:42:13;16.70;99.90
55369;DHT22;41247;49.736;8.752;2022-09-14T01:46:02;16.70;99.90
55369;DHT22;41247;49.736;8.752;2022-09-14T01:54:28;16.60;99.90
55369;DHT22;41247;49.736;8.752;2022-09-14T01:58:20;16.60;99.90
55369;DHT22;41247;49.736;8.752;2022-09-14T02:06:11;16.50;99.90
55369;DHT22;41247;49.736;8.752;2022-09-14T02:10:05;16.50;99.90
55369;DHT22;41247;49.736;8.752;2022-09-14T02:13:47;16.50;99.90
55369;DHT22;41247;49.736;8.752;2022-09-14T02:17:44;16.50;99.90
55369;DHT22;41247;49.736;8.752;2022-09-14T02:21:28;16.50;99.90
55369;DHT22;41247;49.736;8.752;2022-09-14T02:25:10;16.50;99.90
55369;DHT22;41247;49.736;8.752;2022-09-14T02:29:00;16.50;99.90
55369;DHT22;41247;49.736;8.752;2022-09-14T02:37:43;16.40;99.90
55369;DHT22;41247;49.736;8.752;2022-09-14T02:41:39;16.40;99.90
55369;DHT22;41247;49.736;8.752;2022-09-14T02:54:21;16.40;99.90
55369;DHT22;41247;49.736;8.752;2022-09-14T02:58:10;16.40;99.90
55369;DHT22;41247;49.736;8.752;2022-09-14T03:01:52;16.40;99.90
55369;DHT22;41247;49.736;8.752;2022-09-14T03:05:33;16.40;99.90
55369;DHT22;41247;49.736;8.752;2022-09-14T03:09:14;16.40;99.90
55369;DHT22;41247;49.736;8.752;2022-09-14T03:12:54;16.40;99.90
55369;DHT22;41247;49.736;8.752;2022-09-14T03:16:36;16.30;99.90
55369;DHT22;41247;49.736;8.752;2022-09-14T03:20:21;16.30;99.90
55369;DHT22;41247;49.736;8.752;2022-09-14T03:24:06;16.30;99.90
55369;DHT22;41247;49.736;8.752;2022-09-14T03:27:53;16.30;99.90
55369;DHT22;41247;49.736;8.752;2022-09-14T03:31:35;16.20;99.90
55369;DHT22;41247;49.736;8.752;2022-09-14T03:35:16;16.20;99.90
55369;DHT22;41247;49.736;8.752;2022-09-14T03:38:59;16.10;99.90
55369;DHT22;41247;49.736;8.752;2022-09-14T03:42:47;16.20;99.90
55369;DHT22;41247;49.736;8.752;2022-09-14T03:46:28;16.20;99.90
55369;DHT22;41247;49.736;8.752;2022-09-14T03:50:10;16.20;99.90
55369;DHT22;41247;49.736;8.752;2022-09-14T03:53:51;16.10;99.90
55369;DHT22;41247;49.736;8.752;2022-09-14T03:57:32;16.10;99.90
55369;DHT22;41247;49.736;8.752;2022-09-14T04:01:16;16.10;99.90
55369;DHT22;41247;49.736;8.752;2022-09-14T04:05:02;16.20;99.90
55369;DHT22;41247;49.736;8.752;2022-09-14T04:08:43;16.20;99.90
55369;DHT22;41247;49.736;8.752;2022-09-14T04:12:25;16.10;99.90
55369;DHT22;41247;49.736;8.752;2022-09-14T04:16:06;16.10;99.90
55369;DHT22;41247;49.736;8.752;2022-09-14T04:19:46;16.10;99.90
55369;DHT22;41247;49.736;8.752;2022-09-14T04:23:27;16.10;99.90
55369;DHT22;41247;49.736;8.752;2022-09-14T04:27:08;16.10;99.90
55369;DHT22;41247;49.736;8.752;2022-09-14T04:30:56;16.00;99.90
55369;DHT22;41247;49.736;8.752;2022-09-14T04:34:38;16.10;99.90
55369;DHT22;41247;49.736;8.752;2022-09-14T04:38:18;16.10;99.90
55369;DHT22;41247;49.736;8.752;2022-09-14T04:41:59;16.10;99.90
55369;DHT22;41247;49.736;8.752;2022-09-14T04:45:39;16.00;99.90
55369;DHT22;41247;49.736;8.752;2022-09-14T04:49:20;16.00;99.90
55369;DHT22;41247;49.736;8.752;2022-09-14T04:53:01;16.00;99.90
55369;DHT22;41247;49.736;8.752;2022-09-14T04:56:42;16.00;99.90
55369;DHT22;41247;49.736;8.752;2022-09-14T05:00:23;16.00;99.90
55369;DHT22;41247;49.736;8.752;2022-09-14T05:04:04;16.00;99.90
55369;DHT22;41247;49.736;8.752;2022-09-14T05:07:45;16.00;99.90
55369;DHT22;41247;49.736;8.752;2022-09-14T05:11:28;16.00;99.90
55369;DHT22;41247;49.736;8.752;2022-09-14T05:15:11;16.10;99.90
55369;DHT22;41247;49.736;8.752;2022-09-14T05:18:57;16.10;99.90
55369;DHT22;41247;49.736;8.752;2022-09-14T05:22:38;16.10;99.90
55369;DHT22;41247;49.736;8.752;2022-09-14T05:26:19;16.10;99.90
55369;DHT22;41247;49.736;8.752;2022-09-14T05:30:00;16.10;99.90
55369;DHT22;41247;49.736;8.752;2022-09-14T05:33:40;16.20;99.90
55369;DHT22;41247;49.736;8.752;2022-09-14T05:37:21;16.20;99.90
55369;DHT22;41247;49.736;8.752;2022-09-14T05:41:02;16.20;99.90
55369;DHT22;41247;49.736;8.752;2022-09-14T05:49:40;16.10;99.90
55369;DHT22;41247;49.736;8.752;2022-09-14T05:54:15;16.10;99.90
55369;DHT22;41247;49.736;8.752;2022-09-14T05:58:04;16.10;99.90
55369;DHT22;41247;49.736;8.752;2022-09-14T06:06:47;16.10;99.90
55369;DHT22;41247;49.736;8.752;2022-09-14T06:20:25;16.20;99.90
55369;DHT22;41247;49.736;8.752;2022-09-14T06:28:45;16.30;99.90
55369;DHT22;41247;49.736;8.752;2022-09-14T06:32:29;16.40;99.90
55369;DHT22;41247;49.736;8.752;2022-09-14T06:36:11;16.40;99.90
55369;DHT22;41247;49.736;8.752;2022-09-14T06:44:30;16.50;99.90
55369;DHT22;41247;49.736;8.752;2022-09-14T06:48:11;16.40;99.90
55369;DHT22;41247;49.736;8.752;2022-09-14T06:51:51;16.40;99.90
55369;DHT22;41247;49.736;8.752;2022-09-14T06:55:54;16.40;99.90
55369;DHT22;41247;49.736;8.752;2022-09-14T07:00:16;16.40;99.90
55369;DHT22;41247;49.736;8.752;2022-09-14T07:03:58;16.40;99.90
55369;DHT22;41247;49.736;8.752;2022-09-14T07:07:39;16.40;99.90
55369;DHT22;41247;49.736;8.752;2022-09-14T07:11:22;16.40;99.90
55369;DHT22;41247;49.736;8.752;2022-09-14T07:15:04;16.30;99.90
55369;DHT22;41247;49.736;8.752;2022-09-14T07:18:46;16.30;99.90
55369;DHT22;41247;49.736;8.752;2022-09-14T07:22:26;16.30;99.90
55369;DHT22;41247;49.736;8.752;2022-09-14T07:26:12;16.30;99.90
55369;DHT22;41247;49.736;8.752;2022-09-14T07:29:54;16.40;99.90
55369;DHT22;41247;49.736;8.752;2022-09-14T07:33:34;16.40;99.90
55369;DHT22;41247;49.736;8.752;2022-09-14T07:37:15;16.40;99.90
55369;DHT22;41247;49.736;8.752;2022-09-14T07:40:58;16.50;99.90
55369;DHT22;41247;49.736;8.752;2022-09-14T07:44:39;16.60;99.90
55369;DHT22;41247;49.736;8.752;2022-09-14T07:48:20;16.70;99.90
55369;DHT22;41247;49.736;8.752;2022-09-14T07:52:01;16.70;99.90
55369;DHT22;41247;49.736;8.752;2022-09-14T07:55:42;16.80;99.90
55369;DHT22;41247;49.736;8.752;2022-09-14T07:59:22;17.00;99.90
55369;DHT22;41247;49.736;8.752;2022-09-14T08:03:03;17.10;99.90
55369;DHT22;41247;49.736;8.752;2022-09-14T08:06:43;17.20;99.90
55369;DHT22;41247;49.736;8.752;2022-09-14T08:10:24;17.30;99.90
55369;DHT22;41247;49.736;8.752;2022-09-14T08:14:07;17.50;99.90
55369;DHT22;41247;49.736;8.752;2022-09-14T08:17:49;17.60;99.90
55369;DHT22;41247;49.736;8.752;2022-09-14T08:21:31;17.90;99.90
55369;DHT22;41247;49.736;8.752;2022-09-14T08:25:12;18.20;99.90
55369;DHT22;41247;49.736;8.752;2022-09-14T08:28:53;18.30;99.90
55369;DHT22;41247;49.736;8.752;2022-09-14T08:32:34;18.30;99.90
55369;DHT22;41247;49.736;8.752;2022-09-14T08:36:19;18.40;99.90
55369;DHT22;41247;49.736;8.752;2022-09-14T08:40:01;18.40;99.90
55369;DHT22;41247;49.736;8.752;2022-09-14T08:43:42;18.30;99.90
55369;DHT22;41247;49.736;8.752;2022-09-14T08:47:28;18.20;99.90
55369;DHT22;41247;49.736;8.752;2022-09-14T08:51:11;18.10;99.90
55369;DHT22;41247;49.736;8.752;2022-09-14T08:54:57;18.00;99.90
55369;DHT22;41247;49.736;8.752;2022-09-14T09:11:00;17.70;99.90
55369;DHT22;41247;49.736;8.752;2022-09-14T09:14:52;17.70;99.90
55369;DHT22;41247;49.736;8.752;2022-09-14T09:18:47;17.70;99.90
55369;DHT22;41247;49.736;8.752;2022-09-14T09:22:42;17.60;99.90
55369;DHT22;41247;49.736;8.752;2022-09-14T09:26:28;17.50;99.90
55369;DHT22;41247;49.736;8.752;2022-09-14T09:30:14;17.40;99.90
55369;DHT22;41247;49.736;8.752;2022-09-14T09:33:55;17.30;99.90
55369;DHT22;41247;49.736;8.752;2022-09-14T09:37:37;17.30;99.90
55369;DHT22;41247;49.736;8.752;2022-09-14T09:41:22;17.40;99.90
55369;DHT22;41247;49.736;8.752;2022-09-14T09:45:05;17.40;99.90
55369;DHT22;41247;49.736;8.752;2022-09-14T09:48:46;17.40;99.90
55369;DHT22;41247;49.736;8.752;2022-09-14T09:52:28;17.50;99.90
55369;DHT22;41247;49.736;8.752;2022-09-14T09:56:16;17.50;99.90
55369;DHT22;41247;49.736;8.752;2022-09-14T10:04:19;17.50;99.90
55369;DHT22;41247;49.736;8.752;2022-09-14T10:08:13;17.60;99.90
55369;DHT22;41247;49.736;8.752;2022-09-14T10:11:58;17.70;99.90
55369;DHT22;41247;49.736;8.752;2022-09-14T10:15:40;17.80;99.90
55369;DHT22;41247;49.736;8.752;2022-09-14T10:19:23;18.00;99.90
55369;DHT22;41247;49.736;8.752;2022-09-14T10:26:58;18.40;99.90
55369;DHT22;41247;49.736;8.752;2022-09-14T10:30:46;18.50;99.90
55369;DHT22;41247;49.736;8.752;2022-09-14T10:34:31;18.60;99.90
55369;DHT22;41247;49.736;8.752;2022-09-14T10:38:51;18.80;99.90
55369;DHT22;41247;49.736;8.752;2022-09-14T10:59:55;19.70;99.90
55369;DHT22;41247;49.736;8.752;2022-09-14T11:08:11;20.70;99.90
55369;DHT22;41247;49.736;8.752;2022-09-14T11:15:43;20.60;99.90
55369;DHT22;41247;49.736;8.752;2022-09-14T11:19:59;20.80;99.90
55369;DHT22;41247;49.736;8.752;2022-09-14T11:24:20;21.30;99.90
55369;DHT22;41247;49.736;8.752;2022-09-14T11:28:08;21.30;99.90
55369;DHT22;41247;49.736;8.752;2022-09-14T11:31:55;21.20;99.90
55369;DHT22;41247;49.736;8.752;2022-09-14T11:35:48;21.30;99.90
55369;DHT22;41247;49.736;8.752;2022-09-14T11:43:57;21.40;99.90
55369;DHT22;41247;49.736;8.752;2022-09-14T11:47:48;21.40;99.90
55369;DHT22;41247;49.736;8.752;2022-09-14T11:51:51;21.40;99.90
55369;DHT22;41247;49.736;8.752;2022-09-14T11:55:34;21.40;99.90
55369;DHT22;41247;49.736;8.752;2022-09-14T11:59:55;21.60;99.90
55369;DHT22;41247;49.736;8.752;2022-09-14T12:03:50;21.70;99.90
55369;DHT22;41247;49.736;8.752;2022-09-14T12:11:26;21.40;99.90
55369;DHT22;41247;49.736;8.752;2022-09-14T12:15:20;21.30;99.90
55369;DHT22;41247;49.736;8.752;2022-09-14T12:19:03;21.20;99.90
55369;DHT22;41247;49.736;8.752;2022-09-14T12:22:44;21.20;99.90
55369;DHT22;41247;49.736;8.752;2022-09-14T12:26:34;21.20;99.90
55369;DHT22;41247;49.736;8.752;2022-09-14T12:34:22;21.50;99.90
55369;DHT22;41247;49.736;8.752;2022-09-14T12:42:29;21.50;99.90
55369;DHT22;41247;49.736;8.752;2022-09-14T12:46:30;21.30;99.90
55369;DHT22;41247;49.736;8.752;2022-09-14T12:50:19;21.00;99.90
55369;DHT22;41247;49.736;8.752;2022-09-14T12:58:14;20.60;99.90
55369;DHT22;41247;49.736;8.752;2022-09-14T13:06:21;20.30;99.90
55369;DHT22;41247;49.736;8.752;2022-09-14T13:10:04;20.20;99.90
55369;DHT22;41247;49.736;8.752;2022-09-14T13:13:47;20.10;99.90
55369;DHT22;41247;49.736;8.752;2022-09-14T13:17:28;20.10;99.90
55369;DHT22;41247;49.736;8.752;2022-09-14T13:21:22;20.20;99.90
55369;DHT22;41247;49.736;8.752;2022-09-14T13:25:03;20.20;99.90
55369;DHT22;41247;49.736;8.752;2022-09-14T13:28:46;20.10;99.90
55369;DHT22;41247;49.736;8.752;2022-09-14T13:32:29;20.10;99.90
55369;DHT22;41247;49.736;8.752;2022-09-14T13:36:16;20.20;99.90
55369;DHT22;41247;49.736;8.752;2022-09-14T13:39:58;20.20;99.90
55369;DHT22;41247;49.736;8.752;2022-09-14T13:43:41;20.20;99.90
55369;DHT22;41247;49.736;8.752;2022-09-14T13:47:23;20.10;99.90
55369;DHT22;41247;49.736;8.752;2022-09-14T13:51:05;20.00;99.90
55369;DHT22;41247;49.736;8.752;2022-09-14T13:54:47;20.00;99.90
55369;DHT22;41247;49.736;8.752;2022-09-14T13:58:28;20.00;99.90
55369;DHT22;41247;49.736;8.752;2022-09-14T14:02:12;20.00;99.90
55369;DHT22;41247;49.736;8.752;2022-09-14T14:05:53;20.00;99.90
55369;DHT22;41247;49.736;8.752;2022-09-14T14:09:47;20.10;99.90
55369;DHT22;41247;49.736;8.752;2022-09-14T14:13:35;20.10;99.90
55369;DHT22;41247;49.736;8.752;2022-09-14T14:25:17;20.30;99.90
55369;DHT22;41247;49.736;8.752;2022-09-14T14:29:07;20.30;99.90
55369;DHT22;41247;49.736;8.752;2022-09-14T14:32:53;20.20;99.90
55369;DHT22;41247;49.736;8.752;2022-09-14T14:36:34;20.20;99.90
55369;DHT22;41247;49.736;8.752;2022-09-14T14:40:15;20.10;99.90
55369;DHT22;41247;49.736;8.752;2022-09-14T14:43:57;20.10;99.90
55369;DHT22;41247;49.736;8.752;2022-09-14T14:47:37;20.00;99.90
55369;DHT22;41247;49.736;8.752;2022-09-14T14:51:18;20.00;99.90
55369;DHT22;41247;49.736;8.752;2022-09-14T14:54:58;20.00;99.90
55369;DHT22;41247;49.736;8.752;2022-09-14T14:58:44;20.10;99.90
55369;DHT22;41247;49.736;8.752;2022-09-14T15:02:25;20.00;99.90
55369;DHT22;41247;49.736;8.752;2022-09-14T15:06:20;19.90;99.90
55369;DHT22;41247;49.736;8.752;2022-09-14T15:10:02;19.70;99.90
55369;DHT22;41247;49.736;8.752;2022-09-14T15:13:44;19.60;99.90
55369;DHT22;41247;49.736;8.752;2022-09-14T15:17:25;19.60;99.90
55369;DHT22;41247;49.736;8.752;2022-09-14T15:21:06;19.60;99.90
55369;DHT22;41247;49.736;8.752;2022-09-14T15:24:47;19.50;99.90
55369;DHT22;41247;49.736;8.752;2022-09-14T15:28:28;19.50;99.90
55369;DHT22;41247;49.736;8.752;2022-09-14T15:32:08;19.50;99.90
55369;DHT22;41247;49.736;8.752;2022-09-14T15:35:56;19.40;99.90
55369;DHT22;41247;49.736;8.752;2022-09-14T15:39:36;19.40;99.90
55369;DHT22;41247;49.736;8.752;2022-09-14T15:43:17;19.40;99.90
55369;DHT22;41247;49.736;8.752;2022-09-14T15:46:58;19.30;99.90
55369;DHT22;41247;49.736;8.752;2022-09-14T15:50:42;19.30;99.90
55369;DHT22;41247;49.736;8.752;2022-09-14T15:54:30;19.20;99.90
55369;DHT22;41247;49.736;8.752;2022-09-14T15:58:11;19.10;99.90
55369;DHT22;41247;49.736;8.752;2022-09-14T16:01:52;19.10;99.90
55369;DHT22;41247;49.736;8.752;2022-09-14T16:05:37;19.10;99.90
55369;DHT22;41247;49.736;8.752;2022-09-14T16:09:18;19.10;99.90
55369;DHT22;41247;49.736;8.752;2022-09-14T16:12:59;19.10;99.90
55369;DHT22;41247;49.736;8.752;2022-09-14T16:16:40;19.20;99.90
55369;DHT22;41247;49.736;8.752;2022-09-14T16:20:21;19.10;99.90
55369;DHT22;41247;49.736;8.752;2022-09-14T16:24:04;19.10;99.90
55369;DHT22;41247;49.736;8.752;2022-09-14T16:27:46;19.00;99.90
55369;DHT22;41247;49.736;8.752;2022-09-14T16:31:33;19.00;99.90
55369;DHT22;41247;49.736;8.752;2022-09-14T16:35:14;19.00;99.90
55369;DHT22;41247;49.736;8.752;2022-09-14T16:38:57;19.00;99.90
55369;DHT22;41247;49.736;8.752;2022-09-14T16:42:41;18.90;99.90
55369;DHT22;41247;49.736;8.752;2022-09-14T16:46:23;18.80;99.90
55369;DHT22;41247;49.736;8.752;2022-09-14T16:50:05;18.80;99.90
55369;DHT22;41247;49.736;8.752;2022-09-14T16:53:47;18.80;99.90
55369;DHT22;41247;49.736;8.752;2022-09-14T16:57:28;18.60;99.90
55369;DHT22;41247;49.736;8.752;2022-09-14T17:01:20;18.60;99.90
55369;DHT22;41247;49.736;8.752;2022-09-14T17:05:14;18.50;99.90
55369;DHT22;41247;49.736;8.752;2022-09-14T17:08:57;18.40;99.90
55369;DHT22;41247;49.736;8.752;2022-09-14T17:12:39;18.30;99.90
55369;DHT22;41247;49.736;8.752;2022-09-14T17:16:21;18.30;99.90
55369;DHT22;41247;49.736;8.752;2022-09-14T17:20:03;18.20;99.90
55369;DHT22;41247;49.736;8.752;2022-09-14T17:23:45;18.20;99.90
55369;DHT22;41247;49.736;8.752;2022-09-14T17:27:26;18.20;99.90
55369;DHT22;41247;49.736;8.752;2022-09-14T17:31:07;18.20;99.90
55369;DHT22;41247;49.736;8.752;2022-09-14T17:34:47;18.20;99.90
55369;DHT22;41247;49.736;8.752;2022-09-14T17:38:35;18.20;99.90
55369;DHT22;41247;49.736;8.752;2022-09-14T17:42:17;18.20;99.90
55369;DHT22;41247;49.736;8.752;2022-09-14T17:45:58;18.30;99.90
55369;DHT22;41247;49.736;8.752;2022-09-14T17:49:38;18.30;99.90
55369;DHT22;41247;49.736;8.752;2022-09-14T17:53:19;18.30;99.90
55369;DHT22;41247;49.736;8.752;2022-09-14T17:57:00;18.40;99.90
55369;DHT22;41247;49.736;8.752;2022-09-14T18:00:41;18.40;99.90
55369;DHT22;41247;49.736;8.752;2022-09-14T18:04:22;18.40;99.90
55369;DHT22;41247;49.736;8.752;2022-09-14T18:08:03;18.30;99.90
55369;DHT22;41247;49.736;8.752;2022-09-14T18:11:44;18.40;99.90
55369;DHT22;41247;49.736;8.752;2022-09-14T18:15:24;18.40;99.90
55369;DHT22;41247;49.736;8.752;2022-09-14T18:19:05;18.40;99.90
55369;DHT22;41247;49.736;8.752;2022-09-14T18:22:45;18.30;99.90
55369;DHT22;41247;49.736;8.752;2022-09-14T18:26:26;18.20;99.90
55369;DHT22;41247;49.736;8.752;2022-09-14T18:30:07;18.00;99.90
55369;DHT22;41247;49.736;8.752;2022-09-14T18:33:53;17.90;99.90
55369;DHT22;41247;49.736;8.752;2022-09-14T18:37:35;17.80;99.90
55369;DHT22;41247;49.736;8.752;2022-09-14T18:41:16;17.70;99.90
55369;DHT22;41247;49.736;8.752;2022-09-14T18:44:57;17.60;99.90
55369;DHT22;41247;49.736;8.752;2022-09-14T18:48:38;17.50;99.90
55369;DHT22;41247;49.736;8.752;2022-09-14T18:52:18;17.40;99.90
55369;DHT22;41247;49.736;8.752;2022-09-14T18:56:01;17.30;99.90
55369;DHT22;41247;49.736;8.752;2022-09-14T18:59:42;17.20;99.90
55369;DHT22;41247;49.736;8.752;2022-09-14T19:03:23;17.10;99.90
55369;DHT22;41247;49.736;8.752;2022-09-14T19:07:04;17.00;99.90
55369;DHT22;41247;49.736;8.752;2022-09-14T19:10:44;16.90;99.90
55369;DHT22;41247;49.736;8.752;2022-09-14T19:14:25;16.80;99.90
55369;DHT22;41247;49.736;8.752;2022-09-14T19:18:07;16.80;99.90
55369;DHT22;41247;49.736;8.752;2022-09-14T19:21:48;16.70;99.90
55369;DHT22;41247;49.736;8.752;2022-09-14T19:25:28;16.70;99.90
55369;DHT22;41247;49.736;8.752;2022-09-14T19:29:19;16.60;99.90
55369;DHT22;41247;49.736;8.752;2022-09-14T19:33:01;16.60;99.90
55369;DHT22;41247;49.736;8.752;2022-09-14T19:36:42;16.50;99.90
55369;DHT22;41247;49.736;8.752;2022-09-14T19:40:23;16.40;99.90
55369;DHT22;41247;49.736;8.752;2022-09-14T19:44:04;16.40;99.90
55369;DHT22;41247;49.736;8.752;2022-09-14T19:47:45;16.30;99.90
55369;DHT22;41247;49.736;8.752;2022-09-14T19:51:27;16.20;99.90
55369;DHT22;41247;49.736;8.752;2022-09-14T19:55:08;16.20;99.90
55369;DHT22;41247;49.736;8.752;2022-09-14T19:58:50;16.10;99.90
55369;DHT22;41247;49.736;8.752;2022-09-14T20:02:31;16.10;99.90
55369;DHT22;41247;49.736;8.752;2022-09-14T20:06:15;16.10;99.90
55369;DHT22;41247;49.736;8.752;2022-09-14T20:09:58;16.00;99.90
55369;DHT22;41247;49.736;8.752;2022-09-14T20:13:39;16.00;99.90
55369;DHT22;41247;49.736;8.752;2022-09-14T20:17:20;16.00;99.90
55369;DHT22;41247;49.736;8.752;2022-09-14T20:21:01;16.00;99.90
55369;DHT22;41247;49.736;8.752;2022-09-14T20:24:46;16.00;99.90
55369;DHT22;41247;49.736;8.752;2022-09-14T20:28:26;16.00;99.90
55369;DHT22;41247;49.736;8.752;2022-09-14T20:32:07;16.00;99.90
55369;DHT22;41247;49.736;8.752;2022-09-14T20:36:03;15.90;99.90
55369;DHT22;41247;49.736;8.752;2022-09-14T20:39:48;15.90;99.90
55369;DHT22;41247;49.736;8.752;2022-09-14T20:43:30;15.90;99.90
55369;DHT22;41247;49.736;8.752;2022-09-14T20:47:12;15.90;99.90
55369;DHT22;41247;49.736;8.752;2022-09-14T20:50:54;15.80;99.90
55369;DHT22;41247;49.736;8.752;2022-09-14T20:54:35;15.90;99.90
55369;DHT22;41247;49.736;8.752;2022-09-14T20:58:15;15.90;99.90
55369;DHT22;41247;49.736;8.752;2022-09-14T21:01:56;15.80;99.90
55369;DHT22;41247;49.736;8.752;2022-09-14T21:05:37;15.90;99.90
55369;DHT22;41247;49.736;8.752;2022-09-14T21:09:19;15.90;99.90
55369;DHT22;41247;49.736;8.752;2022-09-14T21:13:01;15.80;99.90
55369;DHT22;41247;49.736;8.752;2022-09-14T21:16:44;15.80;99.90
55369;DHT22;41247;49.736;8.752;2022-09-14T21:20:25;15.80;99.90
55369;DHT22;41247;49.736;8.752;2022-09-14T21:24:06;15.90;99.90
55369;DHT22;41247;49.736;8.752;2022-09-14T21:27:48;15.90;99.90
55369;DHT22;41247;49.736;8.752;2022-09-14T21:31:29;15.90;99.90
55369;DHT22;41247;49.736;8.752;2022-09-14T21:35:09;15.90;99.90
55369;DHT22;41247;49.736;8.752;2022-09-14T21:38:52;15.90;99.90
55369;DHT22;41247;49.736;8.752;2022-09-14T21:42:33;15.90;99.90
55369;DHT22;41247;49.736;8.752;2022-09-14T21:46:15;16.00;99.90
55369;DHT22;41247;49.736;8.752;2022-09-14T21:49:56;16.00;99.90
55369;DHT22;41247;49.736;8.752;2022-09-14T21:53:36;16.00;99.90
55369;DHT22;41247;49.736;8.752;2022-09-14T21:57:17;16.00;99.90
55369;DHT22;41247;49.736;8.752;2022-09-14T22:00:58;16.00;99.90
55369;DHT22;41247;49.736;8.752;2022-09-14T22:04:40;16.00;99.90
55369;DHT22;41247;49.736;8.752;2022-09-14T22:08:21;16.00;99.90
55369;DHT22;41247;49.736;8.752;2022-09-14T22:12:01;16.00;99.90
55369;DHT22;41247;49.736;8.752;2022-09-14T22:15:42;16.00;99.90
55369;DHT22;41247;49.736;8.752;2022-09-14T22:19:25;16.00;99.90
55369;DHT22;41247;49.736;8.752;2022-09-14T22:23:06;16.00;99.90
55369;DHT22;41247;49.736;8.752;2022-09-14T22:26:49;16.00;99.90
55369;DHT22;41247;49.736;8.752;2022-09-14T22:30:30;16.00;99.90
55369;DHT22;41247;49.736;8.752;2022-09-14T22:34:11;16.00;99.90
55369;DHT22;41247;49.736;8.752;2022-09-14T22:37:52;16.00;99.90
55369;DHT22;41247;49.736;8.752;2022-09-14T22:41:33;16.00;99.90
55369;DHT22;41247;49.736;8.752;2022-09-14T22:45:13;16.00;99.90
55369;DHT22;41247;49.736;8.752;2022-09-14T22:48:54;16.00;99.90
55369;DHT22;41247;49.736;8.752;2022-09-14T22:52:36;16.00;99.90
55369;DHT22;41247;49.736;8.752;2022-09-14T22:56:24;16.00;99.90
55369;DHT22;41247;49.736;8.752;2022-09-14T23:00:07;16.00;99.90
55369;DHT22;41247;49.736;8.752;2022-09-14T23:03:53;16.00;99.90
55369;DHT22;41247;49.736;8.752;2022-09-14T23:07:35;16.00;99.90
55369;DHT22;41247;49.736;8.752;2022-09-14T23:11:15;16.00;99.90
55369;DHT22;41247;49.736;8.752;2022-09-14T23:14:56;16.00;99.90
55369;DHT22;41247;49.736;8.752;2022-09-14T23:18:37;16.00;99.90
55369;DHT22;41247;49.736;8.752;2022-09-14T23:22:17;16.00;99.90
55369;DHT22;41247;49.736;8.752;2022-09-14T23:26:03;16.00;99.90
55369;DHT22;41247;49.736;8.752;2022-09-14T23:29:45;16.00;99.90
55369;DHT22;41247;49.736;8.752;2022-09-14T23:33:27;16.00;99.90
55369;DHT22;41247;49.736;8.752;2022-09-14T23:37:08;16.00;99.90
55369;DHT22;41247;49.736;8.752;2022-09-14T23:40:51;15.90;99.90
55369;DHT22;41247;49.736;8.752;2022-09-14T23:44:32;15.90;99.90
55369;DHT22;41247;49.736;8.752;2022-09-14T23:48:13;15.90;99.90
55369;DHT22;41247;49.736;8.752;2022-09-14T23:51:54;15.90;99.90
55369;DHT22;41247;49.736;8.752;2022-09-14T23:55:35;15.90;99.90
55369;DHT22;41247;49.736;8.752;2022-09-14T23:59:15;15.80;99.90
